createdAt,value
2022-10-11T00:00:19.987Z,3.05
2022-10-11T00:05:25.883Z,2.58
2022-10-11T00:10:58.237Z,2.88
2022-10-11T00:16:16.472Z,3.35
2022-10-11T00:21:39.503Z,3.47
2022-10-11T00:27:03.177Z,3.42
2022-10-11T00:32:26.131Z,4.55
2022-10-11T00:37:45.112Z,3.40
2022-10-11T00:43:16.582Z,3.35
2022-10-11T00:48:44.093Z,2.90
2022-10-11T00:54:08.991Z,3.80
2022-10-11T00:59:17.932Z,3.83
2022-10-11T01:04:22.004Z,3.78
2022-10-11T01:09:29.608Z,4.15
2022-10-11T01:15:01.781Z,3.47
2022-10-11T01:20:28.618Z,4.20
2022-10-11T01:25:41.719Z,4.63
2022-10-11T01:30:48.378Z,3.53
2022-10-11T01:35:58.631Z,3.83
2022-10-11T01:41:09.240Z,4.70
2022-10-11T01:46:16.155Z,3.75
2022-10-11T01:51:23.641Z,5.28
2022-10-11T01:57:21.272Z,3.20
2022-10-11T02:03:14.253Z,4.47
2022-10-11T02:08:45.593Z,3.22
2022-10-11T02:14:13.034Z,3.67
2022-10-11T02:19:40.340Z,3.65
2022-10-11T02:25:03.269Z,4.32
2022-10-11T02:30:25.812Z,5.70
2022-10-11T02:35:49.426Z,4.18
2022-10-11T02:41:17.557Z,4.15
2022-10-11T02:46:37.517Z,4.10
2022-10-11T02:52:00.341Z,3.13
2022-10-11T02:57:19.996Z,2.95
2022-10-11T03:02:42.936Z,4.47
2022-10-11T03:08:05.907Z,4.63
2022-10-11T03:13:25.741Z,3.83
2022-10-11T03:18:49.562Z,2.65
2022-10-11T03:23:53.857Z,3.25
2022-10-11T03:28:58.328Z,3.92
2022-10-11T03:34:03.783Z,3.58
2022-10-11T03:39:07.924Z,4.13
2022-10-11T03:44:12.022Z,3.65
2022-10-11T03:49:18.178Z,3.75
2022-10-11T03:54:31.670Z,4.32
2022-10-11T03:59:35.855Z,4.38
2022-10-11T04:04:41.357Z,4.57
2022-10-11T04:09:45.544Z,4.28
2022-10-11T04:14:49.590Z,4.50
2022-10-11T04:20:12.387Z,4.55
2022-10-11T04:25:41.388Z,4.07
2022-10-11T04:31:05.414Z,3.35
2022-10-11T04:36:24.557Z,4.80
2022-10-11T04:41:48.015Z,4.43
2022-10-11T04:47:09.738Z,5.18
2022-10-11T04:52:35.208Z,5.70
2022-10-11T04:58:01.615Z,5.28
2022-10-11T05:03:23.153Z,6.80
2022-10-11T05:08:27.605Z,6.05
2022-10-11T05:13:57.033Z,6.45
2022-10-11T05:19:03.607Z,5.18
2022-10-11T05:24:08.620Z,4.90
2022-10-11T05:29:15.578Z,7.25
2022-10-11T05:34:21.738Z,6.43
2022-10-11T05:39:26.354Z,5.72
2022-10-11T05:44:31.019Z,5.60
2022-10-11T05:49:36.320Z,5.05
2022-10-11T05:54:40.289Z,5.70
2022-10-11T05:59:44.487Z,5.03
2022-10-11T06:04:49.842Z,4.75
2022-10-11T06:09:54.196Z,4.95
2022-10-11T06:14:58.183Z,4.38
2022-10-11T06:20:03.961Z,5.35
2022-10-11T06:25:08.858Z,4.97
2022-10-11T06:30:13.729Z,4.65
2022-10-11T06:35:19.109Z,6.43
2022-10-11T06:40:23.009Z,6.93
2022-10-11T06:45:27.049Z,6.93
2022-10-11T06:50:57.936Z,4.63
2022-10-11T06:56:03.613Z,5.65
2022-10-11T07:01:10.277Z,4.50
2022-10-11T07:06:17.650Z,5.30
2022-10-11T07:11:23.606Z,5.45
2022-10-11T07:16:29.030Z,4.32
2022-10-11T07:21:35.758Z,4.53
2022-10-11T07:26:39.742Z,5.33
2022-10-11T07:31:44.735Z,5.95
2022-10-11T07:36:50.187Z,5.13
2022-10-11T07:41:54.150Z,6.65
2022-10-11T07:46:58.141Z,6.25
2022-10-11T07:52:03.583Z,5.30
2022-10-11T07:57:39.485Z,4.35
2022-10-11T08:03:20.770Z,5.28
2022-10-11T08:08:58.500Z,6.45
2022-10-11T08:14:42.711Z,6.28
2022-10-11T08:20:15.471Z,6.18
2022-10-11T08:26:04.425Z,6.50
2022-10-11T08:31:40.294Z,5.35
2022-10-11T08:37:23.402Z,5.10
2022-10-11T08:43:06.343Z,7.35
2022-10-11T08:48:35.062Z,7.95
2022-10-11T08:54:14.035Z,5.40
2022-10-11T09:00:06.993Z,4.78
2022-10-11T09:05:37.275Z,8.38
2022-10-11T09:10:56.097Z,6.38
2022-10-11T09:16:12.050Z,6.20
2022-10-11T09:21:31.542Z,3.90
2022-10-11T09:26:42.119Z,4.75
2022-10-11T09:31:49.433Z,3.83
2022-10-11T09:42:05.514Z,5.60
2022-10-11T09:47:15.689Z,4.97
2022-10-11T09:52:22.966Z,5.05
2022-10-11T10:02:39.569Z,4.53
2022-10-11T10:13:23.969Z,5.45
2022-10-11T10:18:33.996Z,4.43
2022-10-11T10:23:38.933Z,4.40
2022-10-11T10:28:59.088Z,5.32
2022-10-11T10:34:06.088Z,4.05
2022-10-11T10:39:26.236Z,4.30
2022-10-11T10:44:31.680Z,5.55
2022-10-11T10:49:53.574Z,4.55
2022-10-11T10:55:04.751Z,6.20
2022-10-11T11:00:16.911Z,5.88
2022-10-11T11:05:42.273Z,4.07
2022-10-11T11:10:56.257Z,4.60
2022-10-11T11:16:14.091Z,4.45
2022-10-11T11:21:30.092Z,4.45
2022-10-11T11:26:44.273Z,4.20
2022-10-11T11:32:10.647Z,3.80
2022-10-11T11:37:24.801Z,4.32
2022-10-11T11:42:38.189Z,3.75
2022-10-11T11:48:15.337Z,4.38
2022-10-11T11:53:28.996Z,4.65
2022-10-11T11:58:42.690Z,4.50
2022-10-11T12:03:54.264Z,4.03
2022-10-11T12:09:09.178Z,3.28
2022-10-11T12:14:27.731Z,4.65
2022-10-11T12:19:33.616Z,4.57
2022-10-11T12:24:56.277Z,5.22
2022-10-11T12:30:00.386Z,3.70
2022-10-11T12:35:49.109Z,5.15
2022-10-11T12:40:57.064Z,5.25
2022-10-11T12:46:33.242Z,4.43
2022-10-11T12:51:44.765Z,5.55
2022-10-11T12:56:57.622Z,6.75
2022-10-11T13:02:07.284Z,4.43
2022-10-11T13:07:23.949Z,4.38
2022-10-11T13:12:41.715Z,5.85
2022-10-11T13:17:46.071Z,5.90
2022-10-11T13:22:53.409Z,3.95
2022-10-11T13:33:03.015Z,5.22
2022-10-11T13:38:10.207Z,5.32
2022-10-11T13:43:15.810Z,5.60
2022-10-11T13:48:19.919Z,5.40
2022-10-11T13:53:26.551Z,5.90
2022-10-11T13:58:36.256Z,5.87
2022-10-11T14:03:44.740Z,5.13
2022-10-11T14:08:53.078Z,5.18
2022-10-11T14:13:57.427Z,4.78
2022-10-11T14:19:11.367Z,5.07
2022-10-11T14:24:20.981Z,6.03
2022-10-11T14:29:36.863Z,4.70
2022-10-11T14:34:41.113Z,4.97
2022-10-11T14:39:47.751Z,5.38
2022-10-11T14:44:56.801Z,7.77
2022-10-11T14:50:03.889Z,5.65
2022-10-11T14:55:10.385Z,7.47
2022-10-11T15:00:20.364Z,6.78
2022-10-11T15:05:31.152Z,5.68
2022-10-11T15:10:40.688Z,7.30
2022-10-11T15:15:45.405Z,7.55
2022-10-11T15:20:49.509Z,6.18
2022-10-11T15:25:55.699Z,6.28
2022-10-11T15:31:00.495Z,6.25
2022-10-11T15:36:05.093Z,6.78
2022-10-11T15:41:14.850Z,5.93
2022-10-11T15:46:29.571Z,6.22
2022-10-11T15:51:33.880Z,6.20
2022-10-11T15:56:45.450Z,6.65
2022-10-11T16:01:49.738Z,7.43
2022-10-11T16:06:53.756Z,8.18
2022-10-11T16:11:59.192Z,9.25
2022-10-11T16:17:05.802Z,7.97
2022-10-11T16:22:12.132Z,11.80
2022-10-11T16:27:35.200Z,8.50
2022-10-11T16:32:54.173Z,7.28
2022-10-11T16:38:23.177Z,6.75
2022-10-11T16:43:28.847Z,10.18
2022-10-11T16:48:32.949Z,6.57
2022-10-11T16:53:46.711Z,9.40
2022-10-11T16:58:58.444Z,7.95
2022-10-11T17:04:04.315Z,9.18
2022-10-11T17:09:09.232Z,7.88
2022-10-11T17:14:16.075Z,6.70
2022-10-11T17:19:24.413Z,8.10
2022-10-11T17:24:29.205Z,6.55
2022-10-11T17:29:37.548Z,5.95
2022-10-11T17:34:41.525Z,6.10
2022-10-11T17:39:45.545Z,6.30
2022-10-11T17:44:50.971Z,7.75
2022-10-11T17:49:54.954Z,7.70
2022-10-11T17:54:58.877Z,7.72
2022-10-11T18:00:06.270Z,6.22
2022-10-11T18:10:20.372Z,7.68
2022-10-11T18:15:43.649Z,8.93
2022-10-11T18:21:03.517Z,8.75
2022-10-11T18:26:45.497Z,8.45
2022-10-11T18:32:35.368Z,9.70
2022-10-11T18:37:46.874Z,10.80
2022-10-11T18:42:55.516Z,7.95
2022-10-11T18:48:02.092Z,9.55
2022-10-11T18:53:17.935Z,9.88
2022-10-11T18:58:22.100Z,9.13
2022-10-11T19:03:30.334Z,8.10
2022-10-11T19:08:38.768Z,7.70
2022-10-11T19:13:47.671Z,8.07
2022-10-11T19:18:53.947Z,7.25
2022-10-11T19:23:58.285Z,6.75
2022-10-11T19:29:04.684Z,6.45
2022-10-11T19:34:12.004Z,6.20
2022-10-11T19:39:16.472Z,8.25
2022-10-11T19:44:21.125Z,7.70
2022-10-11T19:49:27.029Z,7.93
2022-10-11T19:54:32.198Z,8.02
2022-10-11T19:59:36.268Z,8.02
2022-10-11T20:04:52.524Z,10.82
2022-10-11T20:09:56.922Z,11.30
2022-10-11T20:15:01.726Z,11.82
2022-10-11T20:20:10.216Z,8.13
2022-10-11T20:25:14.485Z,9.70
2022-10-11T20:30:21.353Z,9.32
2022-10-11T20:35:26.835Z,11.43
2022-10-11T20:40:31.411Z,10.80
2022-10-11T20:45:35.436Z,8.60
2022-10-11T20:50:46.154Z,9.05
2022-10-11T20:55:50.630Z,10.18
2022-10-11T21:00:54.885Z,9.32
2022-10-11T21:06:01.110Z,11.02
2022-10-11T21:11:08.405Z,7.75
2022-10-11T21:16:15.729Z,5.70
2022-10-11T21:21:21.878Z,5.63
2022-10-11T21:26:27.411Z,5.97
2022-10-11T21:31:34.333Z,4.57
2022-10-11T21:36:49.027Z,3.55
2022-10-11T21:41:57.861Z,3.83
2022-10-11T21:47:06.910Z,3.25
2022-10-11T21:52:13.269Z,3.35
2022-10-11T21:57:20.887Z,3.15
2022-10-11T22:02:30.266Z,4.40
2022-10-11T22:07:36.415Z,4.03
2022-10-11T22:12:40.761Z,3.40
2022-10-11T22:17:44.970Z,3.28
2022-10-11T22:22:51.677Z,3.22
2022-10-11T22:27:56.140Z,3.90
2022-10-11T22:33:00.881Z,2.80
2022-10-11T22:38:07.487Z,3.05
2022-10-11T22:43:11.512Z,3.78
2022-10-11T22:48:15.603Z,2.40
2022-10-11T22:53:21.143Z,3.28
2022-10-11T22:58:25.912Z,3.60
2022-10-11T23:03:29.939Z,4.03
2022-10-11T23:08:36.883Z,3.25
2022-10-11T23:13:40.945Z,3.97
2022-10-11T23:18:45.199Z,4.05
2022-10-11T23:23:54.136Z,4.25
2022-10-11T23:28:58.134Z,3.55
2022-10-11T23:34:02.271Z,4.10
2022-10-11T23:39:08.238Z,4.57
2022-10-11T23:44:12.417Z,3.58
2022-10-11T23:49:16.614Z,4.03
2022-10-11T23:54:22.311Z,4.90
2022-10-11T23:59:26.461Z,3.30
